createdAt,value
2023-02-07T00:00:03.234Z,10.75
2023-02-07T00:05:17.467Z,8.50
2023-02-07T00:10:20.251Z,10.00
2023-02-07T00:15:23.059Z,8.75
2023-02-07T00:20:27.182Z,8.75
2023-02-07T00:25:29.938Z,8.00
2023-02-07T00:30:32.773Z,7.00
2023-02-07T00:35:37.295Z,7.00
2023-02-07T00:40:41.054Z,6.75
2023-02-07T00:45:43.845Z,7.75
2023-02-07T00:50:48.073Z,7.25
2023-02-07T00:55:52.280Z,9.50
2023-02-07T01:00:55.096Z,7.75
2023-02-07T01:05:59.324Z,6.00
2023-02-07T01:11:04.159Z,7.75
2023-02-07T01:16:07.431Z,8.00
2023-02-07T01:21:17.109Z,7.00
2023-02-07T01:26:19.922Z,5.50
2023-02-07T01:31:24.032Z,7.50
2023-02-07T01:36:30.031Z,6.25
2023-02-07T01:41:32.849Z,7.75
2023-02-07T01:46:37.045Z,6.50
2023-02-07T01:51:46.349Z,9.50
2023-02-07T01:56:54.862Z,6.00
2023-02-07T02:01:58.948Z,4.25
2023-02-07T02:07:04.975Z,6.00
2023-02-07T02:12:47.202Z,5.50
2023-02-07T02:18:03.826Z,6.00
2023-02-07T02:23:19.625Z,5.50
2023-02-07T02:28:46.535Z,7.50
2023-02-07T02:33:58.725Z,5.75
2023-02-07T02:39:09.250Z,8.50
2023-02-07T02:44:18.077Z,7.50
2023-02-07T02:49:23.984Z,7.50
2023-02-07T02:54:31.966Z,5.00
2023-02-07T02:59:52.337Z,6.25
2023-02-07T03:05:13.923Z,4.25
2023-02-07T03:10:29.657Z,7.75
2023-02-07T03:15:39.260Z,6.50
2023-02-07T03:20:49.210Z,5.50
2023-02-07T03:25:53.728Z,8.25
2023-02-07T03:31:02.641Z,7.75
2023-02-07T03:36:15.355Z,6.50
2023-02-07T03:41:25.572Z,4.00
2023-02-07T03:46:35.636Z,7.75
2023-02-07T03:51:39.796Z,5.50
2023-02-07T03:56:42.876Z,5.75
2023-02-07T04:01:45.692Z,5.50
2023-02-07T04:06:49.913Z,7.50
2023-02-07T04:11:53.426Z,8.50
2023-02-07T04:16:56.315Z,5.50
2023-02-07T04:22:00.435Z,5.50
2023-02-07T04:27:03.274Z,5.75
2023-02-07T04:32:06.436Z,5.00
2023-02-07T04:37:10.606Z,7.50
2023-02-07T04:42:13.579Z,6.75
2023-02-07T04:47:16.383Z,6.00
2023-02-07T04:52:20.493Z,6.75
2023-02-07T04:57:23.289Z,4.50
2023-02-07T05:02:26.212Z,8.25
2023-02-07T05:07:30.521Z,6.50
2023-02-07T05:12:33.434Z,6.75
2023-02-07T05:17:38.497Z,5.50
2023-02-07T05:22:42.861Z,5.50
2023-02-07T05:27:45.759Z,7.25
2023-02-07T05:33:05.999Z,9.50
2023-02-07T05:38:12.929Z,6.00
2023-02-07T05:43:15.859Z,8.00
2023-02-07T05:48:18.746Z,8.00
2023-02-07T05:53:23.060Z,8.75
2023-02-07T05:58:25.824Z,7.25
2023-02-07T06:03:28.622Z,8.50
2023-02-07T06:08:32.803Z,5.00
2023-02-07T06:13:35.710Z,6.25
2023-02-07T06:18:38.806Z,8.00
2023-02-07T06:23:42.948Z,5.50
2023-02-07T06:28:45.859Z,6.00
2023-02-07T06:33:48.607Z,8.25
2023-02-07T06:38:55.399Z,7.00
2023-02-07T06:43:58.290Z,8.25
2023-02-07T06:49:01.081Z,6.00
2023-02-07T06:54:09.566Z,5.50
2023-02-07T06:59:12.415Z,5.50
2023-02-07T07:04:15.616Z,6.75
2023-02-07T07:09:19.900Z,6.00
2023-02-07T07:14:23.048Z,7.50
2023-02-07T07:19:25.869Z,7.25
2023-02-07T07:24:30.021Z,7.50
2023-02-07T07:29:32.849Z,7.75
2023-02-07T07:34:35.792Z,6.25
2023-02-07T07:39:40.018Z,5.50
2023-02-07T07:44:42.916Z,6.50
2023-02-07T07:49:45.740Z,9.75
2023-02-07T07:54:49.853Z,5.00
2023-02-07T07:59:52.674Z,5.25
2023-02-07T08:04:55.666Z,53.00
2023-02-07T08:09:59.848Z,44.20
2023-02-07T08:15:02.828Z,35.80
2023-02-07T08:20:07.514Z,36.00
2023-02-07T08:25:11.776Z,30.50
2023-02-07T08:30:15.958Z,25.25
2023-02-07T08:35:19.165Z,27.50
2023-02-07T08:40:23.367Z,24.75
2023-02-07T08:45:26.494Z,23.25
2023-02-07T08:50:29.257Z,22.00
2023-02-07T08:55:33.423Z,17.50
2023-02-07T09:00:36.297Z,19.00
2023-02-07T09:05:39.201Z,21.75
2023-02-07T09:10:45.400Z,20.50
2023-02-07T09:15:55.476Z,22.50
2023-02-07T09:20:58.310Z,19.50
2023-02-07T09:26:04.679Z,20.25
2023-02-07T09:31:11.708Z,16.75
2023-02-07T09:36:21.032Z,16.25
2023-02-07T09:41:31.398Z,15.00
2023-02-07T09:46:38.126Z,13.50
2023-02-07T09:51:41.883Z,17.00
2023-02-07T09:56:47.395Z,16.00
2023-02-07T10:01:54.646Z,15.50
2023-02-07T10:07:00.180Z,13.00
2023-02-07T10:12:17.392Z,12.75
2023-02-07T10:17:32.430Z,14.50
2023-02-07T10:22:45.787Z,18.50
2023-02-07T10:28:04.349Z,13.50
2023-02-07T10:33:15.831Z,12.25
2023-02-07T10:38:24.983Z,17.00
2023-02-07T10:43:32.569Z,11.25
2023-02-07T10:48:36.833Z,13.00
2023-02-07T10:53:54.957Z,12.50
2023-02-07T10:59:00.842Z,15.00
2023-02-07T11:04:22.723Z,10.25
2023-02-07T11:09:26.388Z,12.00
2023-02-07T11:14:31.038Z,14.50
2023-02-07T11:19:33.927Z,11.75
2023-02-07T11:24:38.598Z,11.00
2023-02-07T11:29:49.593Z,15.25
2023-02-07T11:34:55.302Z,12.00
2023-02-07T11:40:21.170Z,10.25
2023-02-07T11:45:25.805Z,13.00
2023-02-07T11:50:31.250Z,10.00
2023-02-07T11:55:36.942Z,10.75
2023-02-07T12:00:42.452Z,12.25
2023-02-07T12:05:51.783Z,10.50
2023-02-07T12:10:59.032Z,12.50
2023-02-07T12:16:08.030Z,12.00
2023-02-07T12:21:19.657Z,13.00
2023-02-07T12:26:25.638Z,13.75
2023-02-07T12:31:38.644Z,14.00
2023-02-07T12:36:47.445Z,15.75
2023-02-07T12:41:57.196Z,12.00
2023-02-07T12:47:08.562Z,15.00
2023-02-07T12:52:27.204Z,10.00
2023-02-07T12:57:38.853Z,14.00
2023-02-07T13:02:56.523Z,11.00
2023-02-07T13:08:11.161Z,10.50
2023-02-07T13:13:23.336Z,11.25
2023-02-07T13:18:35.403Z,11.75
2023-02-07T13:23:42.706Z,10.50
2023-02-07T13:28:51.094Z,12.00
2023-02-07T13:33:55.549Z,9.25
2023-02-07T13:39:08.967Z,52.20
2023-02-07T13:44:23.514Z,59.60
2023-02-07T13:49:41.718Z,57.20
2023-02-07T13:54:57.076Z,56.40
2023-02-07T14:00:15.445Z,45.00
2023-02-07T14:05:26.318Z,47.40
2023-02-07T14:10:39.842Z,50.60
2023-02-07T14:16:11.257Z,46.60
2023-02-07T14:21:45.835Z,47.60
2023-02-07T14:27:06.380Z,45.80
2023-02-07T14:32:28.582Z,47.20
2023-02-07T14:37:49.324Z,41.80
2023-02-07T14:43:02.438Z,47.20
2023-02-07T14:48:07.657Z,36.80
2023-02-07T14:53:15.803Z,39.60
2023-02-07T14:58:27.482Z,39.00
2023-02-07T15:03:34.835Z,35.60
2023-02-07T15:08:39.116Z,37.80
2023-02-07T15:13:45.256Z,35.20
2023-02-07T15:18:52.772Z,32.00
2023-02-07T15:24:01.581Z,33.80
2023-02-07T15:29:07.305Z,33.40
2023-02-07T15:34:17.427Z,34.80
2023-02-07T15:39:23.956Z,37.40
2023-02-07T15:44:28.303Z,36.20
2023-02-07T15:49:34.044Z,32.40
2023-02-07T15:54:45.962Z,34.20
2023-02-07T15:59:52.188Z,33.80
2023-02-07T16:04:55.158Z,36.20
2023-02-07T16:10:17.907Z,30.80
2023-02-07T16:15:27.948Z,32.20
2023-02-07T16:20:35.219Z,32.00
2023-02-07T16:25:39.440Z,29.60
2023-02-07T16:30:42.595Z,29.40
2023-02-07T16:35:45.723Z,52.60
2023-02-07T16:40:50.455Z,70.00
2023-02-07T16:45:54.512Z,72.60
2023-02-07T16:50:58.212Z,101.40
2023-02-07T16:56:03.929Z,108.40
2023-02-07T17:01:06.854Z,105.40
2023-02-07T17:06:14.093Z,102.60
2023-02-07T17:11:20.693Z,104.20
2023-02-07T17:16:25.461Z,87.40
2023-02-07T17:21:28.272Z,81.00
2023-02-07T17:26:32.960Z,88.40
2023-02-07T17:31:35.913Z,80.80
2023-02-07T17:36:40.085Z,75.20
2023-02-07T17:41:44.352Z,74.80
2023-02-07T17:46:47.170Z,72.00
2023-02-07T17:51:50.245Z,72.40
2023-02-07T17:56:55.705Z,71.00
2023-02-07T18:01:58.535Z,70.20
2023-02-07T18:07:01.369Z,68.00
2023-02-07T18:12:05.802Z,70.00
2023-02-07T18:17:08.646Z,65.60
2023-02-07T18:22:11.810Z,66.40
2023-02-07T18:27:17.338Z,67.40
2023-02-07T18:32:20.159Z,65.80
2023-02-07T18:37:23.003Z,68.40
2023-02-07T18:42:27.406Z,62.80
2023-02-07T18:47:32.194Z,61.20
2023-02-07T18:52:35.100Z,63.20
2023-02-07T18:57:39.286Z,61.80
2023-02-07T19:02:42.145Z,58.60
2023-02-07T19:07:45.000Z,60.00
2023-02-07T19:12:49.161Z,57.80
2023-02-07T19:17:51.909Z,57.40
2023-02-07T19:22:54.669Z,56.80
2023-02-07T19:27:58.856Z,56.40
2023-02-07T19:33:01.640Z,54.20
2023-02-07T19:38:04.792Z,54.80
2023-02-07T19:43:09.143Z,54.00
2023-02-07T19:48:11.945Z,54.20
2023-02-07T19:53:16.123Z,56.40
2023-02-07T19:58:20.249Z,51.20
2023-02-07T20:03:23.048Z,55.00
2023-02-07T20:08:26.144Z,49.00
2023-02-07T20:13:33.435Z,50.20
2023-02-07T20:18:36.559Z,52.60
2023-02-07T20:23:41.654Z,49.80
2023-02-07T20:28:46.715Z,48.80
2023-02-07T20:33:50.101Z,47.80
2023-02-07T20:38:53.309Z,46.00
2023-02-07T20:43:59.202Z,50.20
2023-02-07T20:49:04.880Z,52.40
2023-02-07T20:54:07.966Z,47.20
2023-02-07T20:59:17.556Z,45.80
2023-02-07T21:04:20.363Z,46.40
2023-02-07T21:09:23.359Z,48.40
2023-02-07T21:14:29.609Z,44.20
2023-02-07T21:19:32.475Z,41.00
2023-02-07T21:24:35.631Z,41.00
2023-02-07T21:29:39.899Z,47.20
2023-02-07T21:34:42.882Z,44.00
2023-02-07T21:39:45.617Z,42.80
2023-02-07T21:44:49.786Z,43.40
2023-02-07T21:49:52.518Z,46.60
2023-02-07T21:54:55.344Z,43.60
2023-02-07T21:59:59.548Z,41.40
2023-02-07T22:05:02.347Z,39.20
2023-02-07T22:10:05.420Z,34.80
2023-02-07T22:15:10.031Z,40.20
2023-02-07T22:20:13.096Z,42.80
2023-02-07T22:25:16.055Z,41.00
2023-02-07T22:30:20.352Z,39.60
2023-02-07T22:35:23.096Z,38.20
2023-02-07T22:40:25.858Z,38.80
2023-02-07T22:45:30.546Z,42.20
2023-02-07T22:50:33.718Z,38.20
2023-02-07T22:55:36.436Z,37.40
2023-02-07T23:00:41.577Z,40.40
2023-02-07T23:05:44.558Z,36.60
2023-02-07T23:10:47.308Z,36.60
2023-02-07T23:15:51.566Z,37.80
2023-02-07T23:20:54.482Z,39.00
2023-02-07T23:25:58.693Z,37.40
2023-02-07T23:31:02.846Z,38.60
2023-02-07T23:36:06.930Z,33.00
2023-02-07T23:41:10.230Z,32.00
2023-02-07T23:46:16.157Z,29.20
2023-02-07T23:51:19.040Z,35.40
2023-02-07T23:56:23.367Z,34.00
